Time;durP1;ratioP1;P1;durP2;ratioP2;P2;SDS_P1;SDS_P2;PMS_P1;PMS_P2;Temp;Humidity;BMP_temperature;BMP_pressure;BME280_temperature;BME280_humidity;BME280_pressure;Samples;Min_cycle;Max_cycle;Signal;HPM_P1;HPM_P2
2022/03/25 00:00:21;;;;;;;11.57;4.63;;;;;;;;;;5094885;28;20082;-49
2022/03/25 00:02:47;;;;;;;11.27;5.35;;;;;;;;;;5094966;28;20059;-49
2022/03/25 00:05:12;;;;;;;15.13;5.18;;;;;;;;;;5094516;28;20489;-49
2022/03/25 00:07:38;;;;;;;9.68;4.78;;;;;;;;;;5094763;28;20032;-50
2022/03/25 00:10:04;;;;;;;12.27;4.82;;;;;;;;;;5094784;28;20097;-49
2022/03/25 00:12:31;;;;;;;13.60;4.85;;;;;;;;;;5094409;28;20027;-50
2022/03/25 00:14:56;;;;;;;12.32;5.25;;;;;;;;;;5094352;28;20035;-50
2022/03/25 00:17:22;;;;;;;14.13;4.72;;;;;;;;;;5094371;28;20024;-50
2022/03/25 00:19:48;;;;;;;10.60;4.53;;;;;;;;;;5094275;28;20044;-50
2022/03/25 00:22:13;;;;;;;8.90;4.32;;;;;;;;;;5094559;28;20024;-50
2022/03/25 00:24:39;;;;;;;10.52;4.90;;;;;;;;;;5094260;28;20079;-51
2022/03/25 00:27:04;;;;;;;9.88;4.80;;;;;;;;;;5093990;28;20043;-50
2022/03/25 00:29:30;;;;;;;14.85;5.05;;;;;;;;;;5094400;28;20048;-50
2022/03/25 00:31:55;;;;;;;14.38;4.93;;;;;;;;;;5094016;28;20020;-50
2022/03/25 00:34:21;;;;;;;14.10;5.30;;;;;;;;;;5094655;28;20032;-45
2022/03/25 00:36:46;;;;;;;9.13;4.70;;;;;;;;;;5094292;28;20466;-53
2022/03/25 00:39:12;;;;;;;13.95;4.63;;;;;;;;;;5094242;28;20428;-48
2022/03/25 00:41:37;;;;;;;11.55;4.70;;;;;;;;;;5094499;28;20028;-49
2022/03/25 00:44:05;;;;;;;11.18;4.70;;;;;;;;;;5093882;28;20028;-49
2022/03/25 00:46:31;;;;;;;10.60;4.50;;;;;;;;;;5094030;28;20418;-46
2022/03/25 00:48:57;;;;;;;7.20;4.35;;;;;;;;;;5094093;28;20121;-47
2022/03/25 00:51:22;;;;;;;7.78;4.15;;;;;;;;;;5094065;28;20020;-49
2022/03/25 00:53:48;;;;;;;15.00;5.07;;;;;;;;;;5093940;28;20468;-48
2022/03/25 00:56:14;;;;;;;13.35;5.68;;;;;;;;;;5093800;28;20432;-47
2022/03/25 00:58:39;;;;;;;14.35;5.93;;;;;;;;;;5093329;28;20040;-45
2022/03/25 01:01:05;;;;;;;11.48;5.22;;;;;;;;;;5093527;28;20123;-48
2022/03/25 01:03:31;;;;;;;9.90;5.03;;;;;;;;;;5093492;28;20040;-48
2022/03/25 01:05:57;;;;;;;10.57;5.63;;;;;;;;;;5093527;28;20028;-47
2022/03/25 01:08:22;;;;;;;9.63;4.88;;;;;;;;;;5093753;28;20089;-47
2022/03/25 01:10:48;;;;;;;13.25;4.82;;;;;;;;;;5093722;28;20375;-48
2022/03/25 01:13:13;;;;;;;10.18;4.78;;;;;;;;;;5093253;28;20422;-45
2022/03/25 01:15:39;;;;;;;15.27;4.53;;;;;;;;;;5093565;28;20048;-48
2022/03/25 01:18:05;;;;;;;12.48;5.43;;;;;;;;;;5093473;28;20043;-45
2022/03/25 01:20:31;;;;;;;10.68;5.38;;;;;;;;;;5093704;28;20067;-45
2022/03/25 01:22:57;;;;;;;11.02;5.13;;;;;;;;;;5093121;28;20085;-45
2022/03/25 01:25:22;;;;;;;14.18;4.88;;;;;;;;;;5093233;28;20020;-44
2022/03/25 01:27:48;;;;;;;9.45;5.00;;;;;;;;;;5093265;28;20487;-45
2022/03/25 01:30:13;;;;;;;18.40;5.45;;;;;;;;;;5093281;28;20491;-45
2022/03/25 01:32:39;;;;;;;10.02;5.13;;;;;;;;;;5092954;28;20396;-45
2022/03/25 01:35:09;;;;;;;9.52;5.30;;;;;;;;;;5093207;28;20123;-46
2022/03/25 01:37:35;;;;;;;9.83;4.93;;;;;;;;;;5092891;28;20105;-48
2022/03/25 01:40:01;;;;;;;10.00;4.40;;;;;;;;;;5093059;28;20020;-46
2022/03/25 01:42:34;;;;;;;11.35;5.18;;;;;;;;;;5075081;28;20077;-45
2022/03/25 01:45:00;;;;;;;7.30;4.28;;;;;;;;;;5092659;28;20031;-47
2022/03/25 01:47:30;;;;;;;10.10;5.18;;;;;;;;;;5074708;28;20103;-46
2022/03/25 01:49:57;;;;;;;10.00;4.75;;;;;;;;;;5092632;28;20055;-51
2022/03/25 01:52:23;;;;;;;12.18;5.38;;;;;;;;;;5092874;28;20032;-45
2022/03/25 01:54:48;;;;;;;16.10;5.47;;;;;;;;;;5092626;28;20043;-45
2022/03/25 01:57:14;;;;;;;19.30;5.38;;;;;;;;;;5092557;28;20131;-46
2022/03/25 01:59:40;;;;;;;10.60;5.07;;;;;;;;;;5092617;28;20031;-45
2022/03/25 02:02:07;;;;;;;9.30;4.90;;;;;;;;;;5092807;28;20471;-45
2022/03/25 02:04:33;;;;;;;15.80;4.97;;;;;;;;;;5092443;28;20027;-45
2022/03/25 02:06:59;;;;;;;10.27;4.63;;;;;;;;;;5092731;28;20027;-44
2022/03/25 02:09:28;;;;;;;11.85;5.05;;;;;;;;;;5092243;28;20536;-44
2022/03/25 02:11:55;;;;;;;15.10;5.85;;;;;;;;;;5092685;28;20051;-45
2022/03/25 02:14:21;;;;;;;13.70;5.70;;;;;;;;;;5092677;28;20103;-45
2022/03/25 02:16:48;;;;;;;11.25;5.97;;;;;;;;;;5092639;28;20032;-45
2022/03/25 02:19:19;;;;;;;15.80;5.80;;;;;;;;;;5092605;28;20029;-45
2022/03/25 02:21:47;;;;;;;14.32;5.50;;;;;;;;;;5092358;28;20031;-45
2022/03/25 02:24:13;;;;;;;12.93;6.20;;;;;;;;;;5092560;28;20025;-45
2022/03/25 02:26:40;;;;;;;12.02;6.57;;;;;;;;;;5092534;28;20028;-45
2022/03/25 02:29:09;;;;;;;13.57;6.53;;;;;;;;;;5092493;28;20025;-50
2022/03/25 02:31:36;;;;;;;11.35;5.57;;;;;;;;;;5092585;28;20028;-46
2022/03/25 02:34:03;;;;;;;10.02;5.95;;;;;;;;;;5092240;28;20024;-47
2022/03/25 02:36:29;;;;;;;14.68;7.13;;;;;;;;;;5092425;28;20024;-47
2022/03/25 02:38:55;;;;;;;18.75;7.40;;;;;;;;;;5092483;28;20031;-47
2022/03/25 02:41:20;;;;;;;16.75;7.47;;;;;;;;;;5092467;28;20435;-45
2022/03/25 02:43:46;;;;;;;19.35;8.18;;;;;;;;;;5092425;28;20016;-45
2022/03/25 02:46:12;;;;;;;24.50;11.38;;;;;;;;;;5092311;28;20040;-45
2022/03/25 02:48:37;;;;;;;30.77;12.27;;;;;;;;;;5092033;28;20058;-45
2022/03/25 02:51:03;;;;;;;30.25;11.02;;;;;;;;;;5092369;28;20024;-48
2022/03/25 02:53:29;;;;;;;27.33;11.10;;;;;;;;;;5092056;28;20353;-47
2022/03/25 02:55:56;;;;;;;25.20;13.18;;;;;;;;;;5091991;28;20016;-45
2022/03/25 02:58:22;;;;;;;22.10;8.93;;;;;;;;;;5091864;28;20070;-47
2022/03/25 03:00:47;;;;;;;17.88;6.38;;;;;;;;;;5092034;28;20598;-46
2022/03/25 03:03:13;;;;;;;17.33;7.60;;;;;;;;;;5092029;28;20150;-46
2022/03/25 03:05:39;;;;;;;18.80;6.68;;;;;;;;;;5091884;28;20494;-47
2022/03/25 03:08:06;;;;;;;18.13;7.15;;;;;;;;;;5092185;28;20027;-49
2022/03/25 03:10:32;;;;;;;18.45;7.03;;;;;;;;;;5092148;28;20032;-49
2022/03/25 03:13:02;;;;;;;16.45;6.53;;;;;;;;;;5091864;28;20479;-53
2022/03/25 03:15:29;;;;;;;15.52;6.18;;;;;;;;;;5091849;28;20036;-48
2022/03/25 03:17:54;;;;;;;21.98;7.22;;;;;;;;;;5091820;28;20034;-49
2022/03/25 03:20:21;;;;;;;17.73;6.75;;;;;;;;;;5092263;28;20115;-46
2022/03/25 03:22:47;;;;;;;13.93;6.75;;;;;;;;;;5095429;28;20028;-45
2022/03/25 03:25:16;;;;;;;16.70;6.70;;;;;;;;;;5095566;28;20028;-48
2022/03/25 03:27:41;;;;;;;17.77;7.32;;;;;;;;;;5095317;28;20213;-46
2022/03/25 03:30:09;;;;;;;15.73;6.43;;;;;;;;;;5095619;28;20211;-46
2022/03/25 03:32:35;;;;;;;17.95;6.22;;;;;;;;;;5095490;28;20039;-45
2022/03/25 03:35:02;;;;;;;14.23;6.65;;;;;;;;;;5095424;28;20051;-45
2022/03/25 03:37:28;;;;;;;20.13;6.50;;;;;;;;;;5095472;28;20357;-45
2022/03/25 03:39:54;;;;;;;13.02;6.32;;;;;;;;;;5095343;28;20124;-45
2022/03/25 03:42:19;;;;;;;15.10;6.00;;;;;;;;;;5095326;28;20039;-46
2022/03/25 03:44:45;;;;;;;16.75;6.90;;;;;;;;;;5095088;28;20378;-46
2022/03/25 03:47:11;;;;;;;13.27;6.45;;;;;;;;;;5094797;28;20089;-45
2022/03/25 03:49:37;;;;;;;24.40;7.00;;;;;;;;;;5094925;28;20032;-45
2022/03/25 03:52:04;;;;;;;21.15;6.72;;;;;;;;;;5095188;28;20110;-46
2022/03/25 03:54:33;;;;;;;14.93;6.80;;;;;;;;;;5094744;28;20468;-46
2022/03/25 03:56:59;;;;;;;12.50;6.38;;;;;;;;;;5094845;28;20079;-45
2022/03/25 03:59:25;;;;;;;16.15;7.03;;;;;;;;;;5095034;28;20066;-46
2022/03/25 04:01:50;;;;;;;13.68;5.43;;;;;;;;;;5094668;28;20052;-45
2022/03/25 04:04:17;;;;;;;7.78;4.78;;;;;;;;;;5094937;28;20023;-46
2022/03/25 04:06:43;;;;;;;13.35;5.95;;;;;;;;;;5094444;28;20036;-45
2022/03/25 04:09:09;;;;;;;14.75;6.43;;;;;;;;;;5094631;28;20024;-45
2022/03/25 04:11:34;;;;;;;17.88;6.00;;;;;;;;;;5094779;28;20478;-47
2022/03/25 04:13:59;;;;;;;19.65;6.55;;;;;;;;;;5094377;28;20059;-47
2022/03/25 04:16:25;;;;;;;12.98;5.80;;;;;;;;;;5094712;28;20024;-47
2022/03/25 04:18:50;;;;;;;15.25;6.88;;;;;;;;;;5094613;28;20020;-46
2022/03/25 04:21:16;;;;;;;17.23;7.18;;;;;;;;;;5094233;28;20024;-46
2022/03/25 04:23:41;;;;;;;25.45;7.10;;;;;;;;;;5094548;28;20039;-46
2022/03/25 04:26:07;;;;;;;16.58;6.75;;;;;;;;;;5094409;28;20483;-46
2022/03/25 04:28:33;;;;;;;17.00;7.50;;;;;;;;;;5094435;28;20020;-49
2022/03/25 04:30:58;;;;;;;11.32;6.32;;;;;;;;;;5094274;28;20024;-46
2022/03/25 04:33:24;;;;;;;10.95;6.03;;;;;;;;;;5094061;28;20028;-45
2022/03/25 04:35:49;;;;;;;16.13;6.72;;;;;;;;;;5094318;28;20028;-45
2022/03/25 04:38:15;;;;;;;18.45;6.18;;;;;;;;;;5094266;28;20042;-49
2022/03/25 04:40:41;;;;;;;13.43;5.95;;;;;;;;;;5093951;28;20059;-47
2022/03/25 04:43:08;;;;;;;12.73;6.13;;;;;;;;;;5093869;28;20456;-46
2022/03/25 04:45:35;;;;;;;15.48;6.22;;;;;;;;;;5094062;28;20028;-48
2022/03/25 04:48:00;;;;;;;17.40;6.88;;;;;;;;;;5075558;28;20032;-50
2022/03/25 04:50:27;;;;;;;20.42;7.82;;;;;;;;;;5094045;28;20074;-46
2022/03/25 04:52:53;;;;;;;12.88;6.13;;;;;;;;;;5093977;28;20026;-47
2022/03/25 04:55:20;;;;;;;16.15;6.85;;;;;;;;;;5093955;28;20059;-45
2022/03/25 04:57:47;;;;;;;12.95;6.45;;;;;;;;;;5093429;28;20047;-48
2022/03/25 05:00:14;;;;;;;18.73;6.57;;;;;;;;;;5093802;28;20028;-50
2022/03/25 05:02:39;;;;;;;11.65;6.20;;;;;;;;;;5093935;28;20142;-46
2022/03/25 05:05:06;;;;;;;15.98;6.93;;;;;;;;;;5093734;28;20115;-47
2022/03/25 05:07:31;;;;;;;24.67;6.97;;;;;;;;;;5093412;28;20031;-47
2022/03/25 05:09:58;;;;;;;20.88;7.80;;;;;;;;;;5093278;28;20024;-47
2022/03/25 05:12:24;;;;;;;26.95;8.10;;;;;;;;;;5093558;28;20032;-47
2022/03/25 05:14:50;;;;;;;22.27;8.30;;;;;;;;;;5093632;28;20078;-50
2022/03/25 05:17:15;;;;;;;22.20;8.50;;;;;;;;;;5093514;28;20035;-46
2022/03/25 05:19:42;;;;;;;16.83;8.13;;;;;;;;;;5058370;28;20094;-46
2022/03/25 05:22:08;;;;;;;17.92;7.10;;;;;;;;;;5093157;28;20024;-45
2022/03/25 05:24:33;;;;;;;17.55;7.93;;;;;;;;;;5093265;28;20028;-45
2022/03/25 05:26:59;;;;;;;21.77;8.35;;;;;;;;;;5093209;28;20024;-45
2022/03/25 05:29:26;;;;;;;16.13;7.82;;;;;;;;;;5093294;28;20024;-45
2022/03/25 05:31:51;;;;;;;17.13;7.65;;;;;;;;;;5093158;28;20028;-45
2022/03/25 05:34:17;;;;;;;17.30;8.13;;;;;;;;;;5093026;28;20539;-48
2022/03/25 05:36:42;;;;;;;17.38;8.00;;;;;;;;;;5092893;28;20459;-46
2022/03/25 05:39:08;;;;;;;15.10;8.32;;;;;;;;;;5092114;28;20055;-53
2022/03/25 05:41:33;;;;;;;16.73;7.78;;;;;;;;;;5091265;28;20039;-48
2022/03/25 05:43:59;;;;;;;21.10;9.30;;;;;;;;;;5091284;28;20035;-51
2022/03/25 05:46:26;;;;;;;16.10;9.20;;;;;;;;;;5091993;28;20067;-51
2022/03/25 05:48:51;;;;;;;18.17;9.65;;;;;;;;;;5092629;28;20491;-49
2022/03/25 05:51:17;;;;;;;21.08;10.23;;;;;;;;;;5092885;28;20052;-52
2022/03/25 05:53:43;;;;;;;26.15;13.82;;;;;;;;;;5092598;28;20357;-51
2022/03/25 05:56:10;;;;;;;31.20;16.17;;;;;;;;;;5092550;28;20112;-48
2022/03/25 05:58:37;;;;;;;37.03;18.92;;;;;;;;;;5092015;28;20141;-52
2022/03/25 06:01:03;;;;;;;38.33;18.55;;;;;;;;;;5091730;28;20105;-48
2022/03/25 06:03:30;;;;;;;32.25;16.88;;;;;;;;;;5091238;28;20016;-47
2022/03/25 06:05:56;;;;;;;33.70;17.77;;;;;;;;;;5092145;28;20024;-52
2022/03/25 06:08:23;;;;;;;37.72;19.75;;;;;;;;;;5092278;28;20468;-53
2022/03/25 06:10:49;;;;;;;41.17;20.48;;;;;;;;;;5092355;28;20464;-49
2022/03/25 06:13:15;;;;;;;30.02;16.73;;;;;;;;;;5092697;28;20107;-48
2022/03/25 06:15:40;;;;;;;47.97;14.27;;;;;;;;;;5092393;28;20470;-46
2022/03/25 06:18:06;;;;;;;20.02;10.50;;;;;;;;;;5092154;28;20034;-49
2022/03/25 06:20:31;;;;;;;17.73;10.20;;;;;;;;;;5092308;28;20120;-47
2022/03/25 06:22:57;;;;;;;22.10;10.73;;;;;;;;;;5074109;28;20020;-46
2022/03/25 06:25:23;;;;;;;20.27;9.93;;;;;;;;;;5092118;28;20024;-56
2022/03/25 06:27:58;;;;;;;20.40;10.25;;;;;;;;;;5092482;28;20479;-54
2022/03/25 06:30:28;;;;;;;22.13;11.52;;;;;;;;;;5090870;28;20091;-58
2022/03/25 06:32:54;;;;;;;;;;;;;;;;;;5091857;28;20119;-53
2022/03/25 06:35:20;;;;;;;19.17;9.75;;;;;;;;;;5091577;28;20011;-57
2022/03/25 06:37:46;;;;;;;24.80;11.15;;;;;;;;;;5091832;28;20435;-53
2022/03/25 06:40:12;;;;;;;25.50;10.45;;;;;;;;;;5073706;28;20060;-55
2022/03/25 06:42:39;;;;;;;28.90;11.80;;;;;;;;;;5091712;28;20020;-60
2022/03/25 06:45:07;;;;;;;20.25;11.23;;;;;;;;;;5090671;28;20020;-62
2022/03/25 06:47:32;;;;;;;19.60;10.80;;;;;;;;;;5092321;28;20024;-61
2022/03/25 06:49:58;;;;;;;26.48;11.02;;;;;;;;;;5091916;28;20031;-62
2022/03/25 06:52:25;;;;;;;22.23;11.20;;;;;;;;;;5092228;28;20371;-63
2022/03/25 06:54:51;;;;;;;16.50;10.95;;;;;;;;;;5092896;28;20020;-60
2022/03/25 06:57:17;;;;;;;22.45;11.95;;;;;;;;;;5095830;28;20059;-64
2022/03/25 06:59:42;;;;;;;22.88;10.57;;;;;;;;;;5095766;28;20050;-63
2022/03/25 07:02:12;;;;;;;31.25;12.05;;;;;;;;;;5096027;28;20040;-63
2022/03/25 07:04:38;;;;;;;48.45;12.32;;;;;;;;;;5095859;28;20383;-62
2022/03/25 07:07:05;;;;;;;35.83;11.88;;;;;;;;;;5077321;28;20055;-64
2022/03/25 07:09:31;;;;;;;25.98;10.73;;;;;;;;;;5095471;28;20028;-64
2022/03/25 07:11:58;;;;;;;28.40;10.00;;;;;;;;;;5095845;28;20035;-65
2022/03/25 07:14:23;;;;;;;27.13;10.82;;;;;;;;;;5095707;28;20016;-63
2022/03/25 07:16:49;;;;;;;24.60;10.27;;;;;;;;;;5095275;28;20093;-61
2022/03/25 07:19:14;;;;;;;22.08;10.65;;;;;;;;;;5095671;28;20191;-62
2022/03/25 07:21:39;;;;;;;46.25;11.48;;;;;;;;;;5094649;28;20119;-59
2022/03/25 07:24:05;;;;;;;19.80;9.30;;;;;;;;;;5092142;28;20032;-66
2022/03/25 07:26:31;;;;;;;18.92;10.95;;;;;;;;;;5093082;28;20081;-56
2022/03/25 07:28:57;;;;;;;25.80;10.77;;;;;;;;;;5093776;28;20077;-60
2022/03/25 07:31:28;;;;;;;27.17;10.30;;;;;;;;;;5093789;28;20080;-57
2022/03/25 07:33:54;;;;;;;16.02;10.05;;;;;;;;;;5093576;28;20038;-62
2022/03/25 07:36:19;;;;;;;23.73;13.82;;;;;;;;;;5092421;28;20052;-62
2022/03/25 07:38:45;;;;;;;18.80;9.80;;;;;;;;;;5093353;28;20516;-58
2022/03/25 07:41:10;;;;;;;22.60;10.23;;;;;;;;;;5091837;28;20376;-55
2022/03/25 07:43:36;;;;;;;20.88;10.40;;;;;;;;;;5091450;28;20392;-59
2022/03/25 07:46:01;;;;;;;18.08;11.05;;;;;;;;;;5092271;28;20075;-57
2022/03/25 07:48:27;;;;;;;32.67;11.57;;;;;;;;;;5092069;28;20103;-61
2022/03/25 07:50:52;;;;;;;16.77;10.23;;;;;;;;;;5093121;28;20024;-59
2022/03/25 07:53:18;;;;;;;16.25;9.65;;;;;;;;;;5093350;28;20024;-58
2022/03/25 07:55:44;;;;;;;18.42;10.20;;;;;;;;;;5092962;28;20032;-63
2022/03/25 07:58:10;;;;;;;21.13;9.13;;;;;;;;;;5092753;28;20068;-59
2022/03/25 08:00:35;;;;;;;23.95;10.88;;;;;;;;;;5092997;28;20341;-62
2022/03/25 08:03:01;;;;;;;14.93;9.60;;;;;;;;;;5093212;28;20031;-64
2022/03/25 08:05:26;;;;;;;15.50;9.70;;;;;;;;;;5093068;28;20032;-60
2022/03/25 08:07:54;;;;;;;14.40;10.13;;;;;;;;;;5091686;28;20505;-64
2022/03/25 08:10:26;;;;;;;23.33;11.57;;;;;;;;;;5093203;28;20020;-47
2022/03/25 08:12:53;;;;;;;16.80;10.07;;;;;;;;;;5093058;28;20028;-64
2022/03/25 08:15:20;;;;;;;22.15;10.23;;;;;;;;;;5092687;28;20039;-65
2022/03/25 08:17:55;;;;;;;18.48;10.13;;;;;;;;;;5092923;28;20572;-66
2022/03/25 08:20:39;;;;;;;21.45;10.23;;;;;;;;;;5092666;28;20032;-66
2022/03/25 08:23:06;;;;;;;15.82;9.63;;;;;;;;;;5091793;28;20032;-62
2022/03/25 08:28:17;;;;;;;29.52;10.00;;;;;;;;;;5092771;28;20031;-66
2022/03/25 08:30:44;;;;;;;14.07;8.80;;;;;;;;;;5092669;28;20027;-66
2022/03/25 08:33:10;;;;;;;20.15;10.52;;;;;;;;;;5092707;28;20077;-66
2022/03/25 08:35:37;;;;;;;20.92;10.80;;;;;;;;;;5092234;28;20027;-64
2022/03/25 08:38:04;;;;;;;19.88;10.05;;;;;;;;;;5092495;28;20030;-62
2022/03/25 08:40:31;;;;;;;13.98;8.57;;;;;;;;;;5092159;28;20028;-65
2022/03/25 08:42:57;;;;;;;19.02;9.60;;;;;;;;;;5092114;28;20475;-67
2022/03/25 08:45:23;;;;;;;17.95;9.88;;;;;;;;;;5092120;28;20032;-66
2022/03/25 08:47:48;;;;;;;16.30;9.10;;;;;;;;;;5092506;28;20031;-60
2022/03/25 08:50:16;;;;;;;23.55;10.32;;;;;;;;;;5092151;28;20024;-67
2022/03/25 08:52:43;;;;;;;17.98;9.70;;;;;;;;;;5091820;28;20028;-58
2022/03/25 08:55:10;;;;;;;20.90;9.88;;;;;;;;;;5092015;28;20028;-64
2022/03/25 08:57:37;;;;;;;21.17;10.23;;;;;;;;;;5091784;28;20131;-64
2022/03/25 09:00:06;;;;;;;18.08;9.63;;;;;;;;;;5091934;28;20032;-69
2022/03/25 09:02:31;;;;;;;28.05;15.73;;;;;;;;;;5091980;28;20020;-68
2022/03/25 09:04:57;;;;;;;16.95;9.98;;;;;;;;;;5092023;28;20423;-61
2022/03/25 09:07:22;;;;;;;14.88;9.18;;;;;;;;;;5090935;28;20383;-68
2022/03/25 09:09:48;;;;;;;17.20;9.68;;;;;;;;;;5092060;28;20032;-68
2022/03/25 09:12:13;;;;;;;14.70;9.50;;;;;;;;;;5091719;28;20071;-69
2022/03/25 09:14:39;;;;;;;8.55;5.30;;;;;;;;;;5091966;28;20028;-66
2022/03/25 09:17:05;;;;;;;16.45;9.07;;;;;;;;;;5091523;28;20594;-66
2022/03/25 09:19:32;;;;;;;25.17;9.68;;;;;;;;;;5091860;28;20117;-56
2022/03/25 09:21:57;;;;;;;21.15;10.38;;;;;;;;;;5091480;28;20540;-66
2022/03/25 09:24:23;;;;;;;14.02;9.15;;;;;;;;;;5091799;28;20040;-63
2022/03/25 09:26:48;;;;;;;15.48;8.48;;;;;;;;;;5091329;28;20459;-69
2022/03/25 09:29:13;;;;;;;18.80;9.07;;;;;;;;;;5091609;28;20028;-68
2022/03/25 09:31:42;;;;;;;15.45;9.02;;;;;;;;;;5090617;28;20536;-68
2022/03/25 09:36:52;;;;;;;16.10;9.50;;;;;;;;;;5091735;28;20191;-64
2022/03/25 09:39:18;;;;;;;16.05;9.93;;;;;;;;;;5091262;28;20099;-68
2022/03/25 09:41:45;;;;;;;16.27;10.07;;;;;;;;;;5091458;28;20139;-64
2022/03/25 09:44:16;;;;;;;18.88;10.13;;;;;;;;;;5091427;28;20020;-61
2022/03/25 09:46:43;;;;;;;34.42;16.00;;;;;;;;;;5091060;28;20043;-58
2022/03/25 09:49:12;;;;;;;15.73;9.73;;;;;;;;;;5091168;28;20028;-66
2022/03/25 09:51:38;;;;;;;17.45;9.57;;;;;;;;;;5090829;28;20020;-64
2022/03/25 09:54:06;;;;;;;19.73;10.27;;;;;;;;;;5090809;28;20075;-66
2022/03/25 09:56:32;;;;;;;39.03;12.05;;;;;;;;;;5090968;28;20081;-63
2022/03/25 09:58:59;;;;;;;20.13;10.55;;;;;;;;;;5090773;28;20082;-67
2022/03/25 10:01:24;;;;;;;21.30;11.38;;;;;;;;;;5091134;28;20471;-64
2022/03/25 10:03:51;;;;;;;16.70;9.73;;;;;;;;;;5091246;28;20488;-66
2022/03/25 10:06:16;;;;;;;21.98;10.27;;;;;;;;;;5090956;28;20035;-63
2022/03/25 10:08:43;;;;;;;20.30;11.07;;;;;;;;;;5091107;28;20040;-58
2022/03/25 10:11:26;;;;;;;18.38;10.15;;;;;;;;;;5090740;28;20016;-67
2022/03/25 10:14:14;;;;;;;16.90;11.00;;;;;;;;;;5090609;28;20069;-68
2022/03/25 10:16:41;;;;;;;14.70;9.38;;;;;;;;;;5090798;28;20028;-66
2022/03/25 10:19:09;;;;;;;19.08;10.05;;;;;;;;;;5090799;28;20028;-67
2022/03/25 10:21:52;;;;;;;17.30;10.32;;;;;;;;;;5090464;28;20613;-66
2022/03/25 10:24:18;;;;;;;20.60;11.68;;;;;;;;;;5091073;28;20023;-63
2022/03/25 10:26:45;;;;;;;16.73;9.48;;;;;;;;;;5090537;28;20032;-62
2022/03/25 10:29:22;;;;;;;18.20;10.30;;;;;;;;;;5090607;28;20032;-51
2022/03/25 10:32:07;;;;;;;15.85;9.52;;;;;;;;;;5094743;28;20035;-60
2022/03/25 10:34:35;;;;;;;15.63;9.38;;;;;;;;;;5094131;28;20036;-56
2022/03/25 10:37:02;;;;;;;15.18;9.35;;;;;;;;;;5094864;28;20055;-56
2022/03/25 10:39:28;;;;;;;19.85;9.90;;;;;;;;;;5094702;28;20032;-61
2022/03/25 10:41:58;;;;;;;21.30;11.50;;;;;;;;;;5094837;28;20020;-62
2022/03/25 10:44:38;;;;;;;31.27;12.30;;;;;;;;;;5076428;28;20024;-61
2022/03/25 10:47:19;;;;;;;22.58;11.00;;;;;;;;;;5094528;28;20491;-63
2022/03/25 10:49:47;;;;;;;18.75;10.07;;;;;;;;;;5094602;28;20032;-63
2022/03/25 10:52:32;;;;;;;30.25;13.15;;;;;;;;;;5094433;28;20580;-65
2022/03/25 10:55:21;;;;;;;18.00;10.40;;;;;;;;;;5094397;28;20116;-63
2022/03/25 10:57:55;;;;;;;19.33;10.10;;;;;;;;;;5093591;28;20400;-60
2022/03/25 11:00:25;;;;;;;96.75;13.00;;;;;;;;;;5094056;28;20028;-52
2022/03/25 11:02:51;;;;;;;41.63;10.48;;;;;;;;;;5094065;28;20028;-66
2022/03/25 11:05:17;;;;;;;17.50;9.80;;;;;;;;;;5094177;28;20030;-57
2022/03/25 11:07:44;;;;;;;22.85;9.80;;;;;;;;;;5094435;28;20020;-61
2022/03/25 11:10:13;;;;;;;23.15;9.20;;;;;;;;;;5094160;28;20464;-64
2022/03/25 11:12:43;;;;;;;20.67;9.88;;;;;;;;;;5094266;28;20039;-58
2022/03/25 11:15:13;;;;;;;18.67;8.65;;;;;;;;;;5093929;28;20038;-57
2022/03/25 11:17:41;;;;;;;13.60;9.25;;;;;;;;;;5093540;28;20384;-59
2022/03/25 11:20:08;;;;;;;17.45;9.25;;;;;;;;;;5094009;28;20036;-48
2022/03/25 11:22:37;;;;;;;13.95;9.50;;;;;;;;;;5093394;28;20028;-48
2022/03/25 11:25:04;;;;;;;14.25;8.88;;;;;;;;;;5093797;28;20035;-56
2022/03/25 11:27:36;;;;;;;12.23;9.25;;;;;;;;;;5093918;28;20040;-61
2022/03/25 11:30:10;;;;;;;17.42;9.77;;;;;;;;;;5093721;28;20039;-54
2022/03/25 11:33:02;;;;;;;14.75;9.35;;;;;;;;;;5075930;28;20476;-65
2022/03/25 11:35:30;;;;;;;17.20;10.02;;;;;;;;;;5093531;28;20535;-60
2022/03/25 11:38:11;;;;;;;13.95;9.43;;;;;;;;;;5093841;28;20032;-64
2022/03/25 11:40:42;;;;;;;18.13;9.38;;;;;;;;;;5092976;28;20510;-64
2022/03/25 11:43:25;;;;;;;13.57;9.32;;;;;;;;;;5093075;28;20032;-64
2022/03/25 11:46:00;;;;;;;13.10;9.10;;;;;;;;;;5093634;28;20137;-63
2022/03/25 11:48:25;;;;;;;22.35;10.68;;;;;;;;;;5093637;28;20028;-65
2022/03/25 11:50:55;;;;;;;16.65;9.60;;;;;;;;;;5093647;28;20426;-67
2022/03/25 11:53:22;;;;;;;;;;;;;;;;;;5094004;28;20030;-68
2022/03/25 11:56:03;;;;;;;23.67;9.18;;;;;;;;;;5092999;28;19912;-65
2022/03/25 11:58:33;;;;;;;18.02;8.63;;;;;;;;;;5093004;28;20040;-64
2022/03/25 12:01:06;;;;;;;14.55;7.78;;;;;;;;;;5093122;28;20479;-63
2022/03/25 12:03:53;;;;;;;19.48;8.80;;;;;;;;;;5093422;28;20532;-63
2022/03/25 12:06:26;;;;;;;21.92;8.48;;;;;;;;;;5093168;28;20119;-57
2022/03/25 12:09:00;;;;;;;13.68;8.15;;;;;;;;;;5093235;28;20043;-56
2022/03/25 12:11:58;;;;;;;19.00;8.45;;;;;;;;;;5093220;28;20066;-65
2022/03/25 12:14:31;;;;;;;22.90;11.23;;;;;;;;;;5092739;28;20479;-54
2022/03/25 12:17:12;;;;;;;24.67;12.27;;;;;;;;;;5093036;28;20086;-58
2022/03/25 12:19:51;;;;;;;28.65;11.73;;;;;;;;;;5092657;28;20035;-59
2022/03/25 12:22:19;;;;;;;16.27;8.05;;;;;;;;;;5093121;28;20032;-58
2022/03/25 12:24:52;;;;;;;17.17;7.30;;;;;;;;;;5092521;28;20076;-66
2022/03/25 12:27:19;;;;;;;12.90;7.22;;;;;;;;;;5092646;28;20119;-59
2022/03/25 12:29:51;;;;;;;19.10;10.07;;;;;;;;;;5091900;28;20143;-54
2022/03/25 12:32:18;;;;;;;17.52;8.45;;;;;;;;;;5092142;28;20488;-56
2022/03/25 12:34:49;;;;;;;14.05;8.38;;;;;;;;;;5092749;28;20070;-54
2022/03/25 12:37:24;;;;;;;16.40;9.52;;;;;;;;;;5092564;28;20031;-54
2022/03/25 12:39:49;;;;;;;14.32;8.70;;;;;;;;;;5074314;28;20467;-53
2022/03/25 12:42:14;;;;;;;13.68;8.55;;;;;;;;;;5092137;28;20047;-58
2022/03/25 12:44:40;;;;;;;16.05;8.05;;;;;;;;;;5092293;28;20039;-54
2022/03/25 12:47:06;;;;;;;21.77;8.57;;;;;;;;;;5092155;28;20037;-57
2022/03/25 12:49:33;;;;;;;17.38;8.50;;;;;;;;;;5092374;28;20032;-62
2022/03/25 12:52:04;;;;;;;14.18;8.38;;;;;;;;;;5091874;28;20463;-62
2022/03/25 12:54:36;;;;;;;15.95;9.20;;;;;;;;;;5091907;28;20043;-62
2022/03/25 12:57:04;;;;;;;14.52;8.23;;;;;;;;;;5091660;28;20085;-59
2022/03/25 12:59:34;;;;;;;13.50;7.90;;;;;;;;;;5091392;28;20379;-59
2022/03/25 13:02:10;;;;;;;15.32;8.55;;;;;;;;;;5073364;28;20383;-64
2022/03/25 13:04:36;;;;;;;24.73;9.23;;;;;;;;;;5091881;28;20032;-52
2022/03/25 13:07:20;;;;;;;10.90;7.50;;;;;;;;;;5091911;28;20394;-49
2022/03/25 13:09:53;;;;;;;20.08;8.82;;;;;;;;;;5090565;28;20032;-61
2022/03/25 13:12:35;;;;;;;13.57;7.85;;;;;;;;;;5090985;28;20391;-63
2022/03/25 13:15:02;;;;;;;16.15;7.65;;;;;;;;;;5091584;28;20027;-64
2022/03/25 13:17:47;;;;;;;13.50;7.30;;;;;;;;;;5091859;28;20052;-65
2022/03/25 13:20:26;;;;;;;84.40;10.93;;;;;;;;;;5091661;28;20028;-64
2022/03/25 13:22:59;;;;;;;21.10;10.02;;;;;;;;;;5091928;28;20109;-60
2022/03/25 13:25:31;;;;;;;16.60;7.45;;;;;;;;;;5091202;28;20480;-59
2022/03/25 13:27:58;;;;;;;12.75;7.03;;;;;;;;;;5091384;28;20483;-57
2022/03/25 13:30:26;;;;;;;17.23;8.90;;;;;;;;;;5091277;28;20038;-61
2022/03/25 13:33:00;;;;;;;12.85;7.38;;;;;;;;;;5091769;28;20040;-56
2022/03/25 13:35:45;;;;;;;15.20;7.93;;;;;;;;;;5091140;28;20468;-60
2022/03/25 13:38:13;;;;;;;16.40;9.32;;;;;;;;;;5091263;28;20114;-55
2022/03/25 13:40:45;;;;;;;22.85;10.93;;;;;;;;;;5091165;28;20034;-65
2022/03/25 13:43:13;;;;;;;21.60;8.93;;;;;;;;;;5091784;28;20349;-55
2022/03/25 13:45:40;;;;;;;15.63;8.25;;;;;;;;;;5091268;28;20023;-57
2022/03/25 13:48:15;;;;;;;18.35;8.98;;;;;;;;;;5091335;28;20058;-57
2022/03/25 13:50:53;;;;;;;19.20;8.55;;;;;;;;;;5091052;28;20054;-46
2022/03/25 13:53:38;;;;;;;13.88;7.10;;;;;;;;;;5090142;28;20039;-49
2022/03/25 13:56:15;;;;;;;23.65;8.32;;;;;;;;;;5090950;28;20452;-53
2022/03/25 13:58:49;;;;;;;12.68;7.57;;;;;;;;;;5090770;28;20438;-55
2022/03/25 14:01:16;;;;;;;24.83;9.82;;;;;;;;;;5090705;28;20108;-51
2022/03/25 14:03:42;;;;;;;17.85;9.18;;;;;;;;;;5090077;28;20063;-52
2022/03/25 14:06:15;;;;;;;16.80;8.18;;;;;;;;;;5090099;28;20032;-51
2022/03/25 14:08:42;;;;;;;17.35;9.07;;;;;;;;;;5090470;28;20052;-54
2022/03/25 14:11:08;;;;;;;15.65;7.32;;;;;;;;;;5090890;28;20024;-48
2022/03/25 14:13:54;;;;;;;23.17;7.85;;;;;;;;;;5090768;28;20282;-51
2022/03/25 14:16:20;;;;;;;38.08;9.57;;;;;;;;;;5076423;28;20044;-50
2022/03/25 14:18:53;;;;;;;17.48;9.05;;;;;;;;;;5090861;28;20024;-51
2022/03/25 14:21:33;;;;;;;15.93;6.03;;;;;;;;;;5091127;28;20069;-47
2022/03/25 14:24:46;;;;;;;22.23;7.40;;;;;;;;;;5090903;28;20418;-51
2022/03/25 14:26:47;;;;;;;16.77;7.28;;;;;;;;;;5076113;28;20488;-50
2022/03/25 14:29:13;;;;;;;16.23;8.15;;;;;;;;;;5090535;28;20115;-50
2022/03/25 14:31:42;;;;;;;16.73;7.70;;;;;;;;;;5090872;28;20111;-52
2022/03/25 14:34:08;;;;;;;19.48;7.78;;;;;;;;;;5090855;28;20032;-52
2022/03/25 14:36:34;;;;;;;18.73;9.02;;;;;;;;;;5090825;28;20411;-47
2022/03/25 14:39:02;;;;;;;21.85;8.93;;;;;;;;;;5089759;28;20483;-50